Time;durP1;ratioP1;P1;durP2;ratioP2;P2;SDS_P1;SDS_P2;PMS_P1;PMS_P2;Temp;Humidity;BMP_temperature;BMP_pressure;BME280_temperature;BME280_humidity;BME280_pressure;Samples;Min_cycle;Max_cycle;Signal;HPM_P1;HPM_P2
2023/07/18 00:00:02;;;;;;;8.55;1.90;;;;;;;14.76;100.00;101978.81;5006062;28;20061;-61
2023/07/18 00:02:30;;;;;;;7.82;2.25;;;;;;;14.74;100.00;101972.75;5009979;28;20054;-60
2023/07/18 00:05:00;;;;;;;8.82;2.22;;;;;;;14.79;100.00;101978.59;5007990;28;20536;-60
2023/07/18 00:07:29;;;;;;;9.93;2.50;;;;;;;14.77;100.00;101972.56;5007643;28;20488;-62
2023/07/18 00:09:57;;;;;;;6.43;2.00;;;;;;;14.75;100.00;101974.44;5011318;28;20486;-62
2023/07/18 00:12:26;;;;;;;8.32;2.58;;;;;;;14.70;100.00;101975.59;5011313;28;20527;-61
2023/07/18 00:14:54;;;;;;;10.73;2.22;;;;;;;14.61;100.00;101972.69;5009934;28;20050;-61
2023/07/18 00:17:22;;;;;;;5.72;1.92;;;;;;;14.60;100.00;101970.97;5011165;28;20046;-62
2023/07/18 00:19:52;;;;;;;8.95;2.20;;;;;;;14.61;100.00;101968.22;5012345;28;20038;-61
2023/07/18 00:22:21;;;;;;;9.65;2.45;;;;;;;14.62;100.00;101967.28;5010947;28;20049;-62
2023/07/18 00:24:50;;;;;;;5.82;2.17;;;;;;;14.60;100.00;101973.63;5010697;28;20045;-62
2023/07/18 00:27:18;;;;;;;8.55;2.15;;;;;;;14.60;100.00;101968.31;5011302;28;20054;-62
2023/07/18 00:29:46;;;;;;;9.73;2.20;;;;;;;14.58;100.00;101962.28;5010445;28;20041;-62
2023/07/18 00:32:14;;;;;;;7.88;2.25;;;;;;;14.59;100.00;101969.25;5011331;28;20161;-62
2023/07/18 00:34:44;;;;;;;7.97;2.10;;;;;;;14.48;100.00;101960.22;5009204;28;20065;-61
2023/07/18 00:37:12;;;;;;;9.07;2.50;;;;;;;14.47;100.00;101960.34;5013884;28;20096;-61
2023/07/18 00:39:42;;;;;;;5.90;2.35;;;;;;;14.43;100.00;101964.97;5009939;28;20532;-61
2023/07/18 00:42:10;;;;;;;6.28;2.33;;;;;;;14.34;100.00;101957.59;5013172;28;20072;-62
2023/07/18 00:44:39;;;;;;;8.10;2.30;;;;;;;14.37;100.00;101957.44;5014402;28;20053;-61
2023/07/18 00:47:08;;;;;;;7.93;2.13;;;;;;;14.43;100.00;101956.19;5014723;28;20080;-62
2023/07/18 00:49:37;;;;;;;6.40;1.98;;;;;;;14.39;100.00;101960.81;5011876;28;20045;-57
2023/07/18 00:52:06;;;;;;;5.30;2.00;;;;;;;14.30;100.00;101959.63;5010623;28;20062;-57
2023/07/18 00:54:35;;;;;;;8.38;2.55;;;;;;;14.28;100.00;101964.13;5009557;28;20049;-57
2023/07/18 00:57:07;;;;;;;8.45;2.50;;;;;;;14.27;100.00;101958.94;5010559;28;20046;-57
2023/07/18 00:59:38;;;;;;;8.37;2.27;;;;;;;14.25;100.00;101959.03;5007745;28;20912;-57
2023/07/18 01:02:07;;;;;;;7.85;2.20;;;;;;;14.22;100.00;101956.59;5011002;28;20077;-57
2023/07/18 01:04:37;;;;;;;5.45;2.22;;;;;;;14.25;100.00;101961.69;5010080;28;20045;-57
2023/07/18 01:07:06;;;;;;;7.50;2.03;;;;;;;14.17;100.00;101956.88;5012825;28;20825;-56
2023/07/18 01:09:34;;;;;;;7.35;1.92;;;;;;;14.19;100.00;101964.72;5011407;28;20452;-57
2023/07/18 01:12:02;;;;;;;8.80;2.15;;;;;;;14.14;100.00;101966.81;5010555;28;20116;-58
2023/07/18 01:14:33;;;;;;;6.90;2.25;;;;;;;14.04;100.00;101971.81;5013329;28;20052;-61
2023/07/18 01:17:01;;;;;;;9.30;2.30;;;;;;;14.10;100.00;101973.25;5013771;28;20085;-61
2023/07/18 01:19:30;;;;;;;6.10;2.05;;;;;;;14.08;100.00;101970.66;5012384;28;20057;-57
2023/07/18 01:22:00;;;;;;;6.68;1.85;;;;;;;14.02;100.00;101973.72;5013603;28;20054;-61
2023/07/18 01:24:28;;;;;;;8.35;2.05;;;;;;;13.99;100.00;101969.44;5009033;28;20118;-61
2023/07/18 01:26:56;;;;;;;6.75;2.00;;;;;;;13.92;100.00;101968.16;5009416;28;20571;-57
2023/07/18 01:29:25;;;;;;;7.35;2.30;;;;;;;13.85;100.00;101965.03;5006196;28;20108;-56
2023/07/18 01:31:53;;;;;;;6.35;2.03;;;;;;;13.84;100.00;101959.84;5010542;28;20046;-62
2023/07/18 01:34:21;;;;;;;5.88;1.83;;;;;;;13.84;100.00;101957.19;5010642;28;20599;-61
2023/07/18 01:36:49;;;;;;;6.25;1.88;;;;;;;13.84;100.00;101954.53;5009579;28;20061;-57
2023/07/18 01:39:20;;;;;;;6.65;1.67;;;;;;;13.89;100.00;101957.72;5009060;28;20042;-57
2023/07/18 01:41:49;;;;;;;5.95;1.70;;;;;;;13.89;100.00;101951.59;5009759;28;20050;-57
2023/07/18 01:44:17;;;;;;;7.78;1.98;;;;;;;13.85;100.00;101953.56;5007949;28;20154;-61
2023/07/18 01:46:48;;;;;;;5.95;1.70;;;;;;;13.81;100.00;101952.06;5009856;28;20049;-61
2023/07/18 01:49:17;;;;;;;6.20;2.25;;;;;;;13.77;100.00;101945.25;5009575;28;20505;-58
2023/07/18 01:51:45;;;;;;;5.57;1.70;;;;;;;13.72;100.00;101934.97;5009719;28;20045;-57
2023/07/18 01:54:13;;;;;;;7.80;2.10;;;;;;;13.72;100.00;101945.56;5009945;28;20046;-57
2023/07/18 01:56:46;;;;;;;6.93;2.10;;;;;;;13.68;100.00;101929.03;5013361;28;20044;-61
2023/07/18 01:59:14;;;;;;;4.78;1.80;;;;;;;13.69;100.00;101930.72;5013643;28;20367;-61
2023/07/18 02:01:42;;;;;;;6.72;1.98;;;;;;;13.66;100.00;101935.34;5010644;28;20501;-57
2023/07/18 02:04:13;;;;;;;7.85;2.00;;;;;;;13.67;100.00;101931.78;5009387;28;20858;-57
2023/07/18 02:06:41;;;;;;;3.75;1.55;;;;;;;13.68;100.00;101931.66;5011720;28;20505;-57
2023/07/18 02:09:09;;;;;;;5.40;2.08;;;;;;;13.61;100.00;101925.06;5008941;28;20406;-57
2023/07/18 02:11:37;;;;;;;9.13;2.30;;;;;;;13.58;100.00;101922.63;5008727;28;20561;-57
2023/07/18 02:14:07;;;;;;;4.65;1.95;;;;;;;13.55;100.00;101930.72;5007482;28;20504;-58
2023/07/18 02:16:35;;;;;;;9.75;2.03;;;;;;;13.52;100.00;101928.25;5011689;28;20103;-58
2023/07/18 02:19:04;;;;;;;5.85;2.08;;;;;;;13.52;100.00;101929.13;5009134;28;20120;-58
2023/07/18 02:21:32;;;;;;;8.50;2.42;;;;;;;13.51;100.00;101927.41;5009294;28;20045;-58
2023/07/18 02:24:02;;;;;;;8.60;3.13;;;;;;;13.44;100.00;101935.81;5011014;28;20053;-57
2023/07/18 02:26:30;;;;;;;7.20;2.30;;;;;;;13.39;100.00;101927.28;5009978;28;20128;-58
2023/07/18 02:28:58;;;;;;;8.23;2.38;;;;;;;13.37;100.00;101923.91;5007293;28;20413;-58
2023/07/18 02:31:28;;;;;;;7.22;2.42;;;;;;;13.32;100.00;101922.38;5011928;28;20034;-58
2023/07/18 02:33:59;;;;;;;;;;;;;;;13.30;100.00;101913.66;5012792;28;20052;-57
2023/07/18 02:36:29;;;;;;;6.65;1.85;;;;;;;13.29;100.00;101917.28;5012147;28;19925;-58
2023/07/18 02:38:57;;;;;;;8.15;2.50;;;;;;;13.30;100.00;101913.66;5009947;28;20057;-61
2023/07/18 02:41:25;;;;;;;7.38;2.30;;;;;;;13.31;100.00;101914.53;5008318;28;20060;-61
2023/07/18 02:43:53;;;;;;;7.30;2.35;;;;;;;13.30;100.00;101908.38;5010725;28;20054;-58
2023/07/18 02:46:21;;;;;;;9.00;2.22;;;;;;;13.21;100.00;101916.88;5012147;28;20254;-58
2023/07/18 02:48:51;;;;;;;6.43;2.20;;;;;;;13.20;100.00;101917.81;5010452;28;20046;-58
2023/07/18 02:51:19;;;;;;;8.80;2.00;;;;;;;13.21;100.00;101916.88;5009128;28;20497;-58
2023/07/18 02:53:49;;;;;;;5.70;2.00;;;;;;;13.25;100.00;101918.41;5008410;28;20077;-58
2023/07/18 02:56:17;;;;;;;9.43;2.63;;;;;;;13.20;100.00;101909.88;5008129;28;20042;-58
2023/07/18 02:58:46;;;;;;;6.43;2.10;;;;;;;13.15;100.00;101914.59;5006918;28;20048;-58
2023/07/18 03:01:14;;;;;;;7.03;2.10;;;;;;;13.19;100.00;101909.00;5006825;28;20046;-58
2023/07/18 03:03:43;;;;;;;7.63;2.50;;;;;;;13.14;100.00;101902.31;5010149;28;20536;-58
2023/07/18 03:06:15;;;;;;;5.82;1.92;;;;;;;13.23;100.00;101900.94;5010017;28;20049;-58
2023/07/18 03:08:43;;;;;;;6.63;2.10;;;;;;;13.18;100.00;101898.53;5007876;28;20046;-58
2023/07/18 03:11:11;;;;;;;6.38;2.00;;;;;;;13.07;100.00;101893.06;5008827;28;20046;-58
2023/07/18 03:13:39;;;;;;;4.95;1.83;;;;;;;13.03;100.00;101895.03;5009284;28;20057;-58
2023/07/18 03:16:07;;;;;;;7.75;2.25;;;;;;;13.06;100.00;101899.28;5007524;28;20073;-58
2023/07/18 03:18:40;;;;;;;6.85;2.30;;;;;;;13.12;100.00;101909.50;5009970;28;20045;-58
2023/07/18 03:21:09;;;;;;;8.57;2.65;;;;;;;13.06;100.00;101909.84;5011545;28;20037;-58
2023/07/18 03:23:38;;;;;;;6.65;2.53;;;;;;;13.02;100.00;101907.38;5007597;28;20060;-58
2023/07/18 03:26:09;;;;;;;6.28;2.33;;;;;;;12.98;100.00;101911.16;5008911;28;20057;-58
2023/07/18 03:28:38;;;;;;;8.48;2.50;;;;;;;12.99;100.00;101906.69;5007756;28;20798;-58
2023/07/18 03:31:06;;;;;;;6.72;2.00;;;;;;;12.96;100.00;101910.38;5007666;28;20045;-58
2023/07/18 03:33:34;;;;;;;10.02;3.20;;;;;;;12.91;100.00;101912.44;5010565;28;20042;-58
2023/07/18 03:36:04;;;;;;;6.32;2.60;;;;;;;12.94;100.00;101914.03;5011615;28;20507;-58
2023/07/18 03:38:33;;;;;;;6.53;2.47;;;;;;;12.90;100.00;101916.03;5011850;28;20141;-58
2023/07/18 03:41:02;;;;;;;5.60;2.33;;;;;;;12.93;100.00;101921.13;5011425;28;20050;-58
2023/07/18 03:43:30;;;;;;;9.95;2.70;;;;;;;12.87;100.00;101926.78;5011663;28;20059;-58
2023/07/18 03:45:59;;;;;;;6.38;2.58;;;;;;;12.85;100.00;101921.53;5008109;28;20081;-58
2023/07/18 03:48:28;;;;;;;9.52;2.92;;;;;;;12.81;100.00;101922.66;5007852;28;20069;-58
2023/07/18 03:50:56;;;;;;;8.05;3.15;;;;;;;12.79;100.00;101929.84;5010263;28;20041;-58
2023/07/18 03:53:24;;;;;;;10.55;2.95;;;;;;;12.81;100.00;101929.75;5007817;28;20046;-58
2023/07/18 03:56:04;;;;;;;8.35;2.72;;;;;;;12.82;100.00;101928.81;5010598;28;20070;-58
2023/07/18 03:58:32;;;;;;;6.93;2.80;;;;;;;12.85;100.00;101921.53;5014046;28;20485;-58
2023/07/18 04:01:06;;;;;;;8.52;2.80;;;;;;;12.83;100.00;101926.09;5011502;28;20053;-58
2023/07/18 04:03:35;;;;;;;7.50;2.85;;;;;;;12.81;100.00;101920.03;5011526;28;20708;-57
2023/07/18 04:06:03;;;;;;;10.75;3.13;;;;;;;12.81;100.00;101921.81;5011361;28;20567;-58
2023/07/18 04:08:31;;;;;;;10.35;3.08;;;;;;;12.81;100.00;101913.91;5013216;28;20497;-57
2023/07/18 04:11:00;;;;;;;7.55;2.92;;;;;;;12.73;100.00;101902.94;5015033;28;20053;-61
2023/07/18 04:13:29;;;;;;;9.15;3.50;;;;;;;12.74;100.00;101899.38;5014917;28;20049;-57
2023/07/18 04:15:59;;;;;;;7.97;3.22;;;;;;;12.77;100.00;101901.81;5014741;28;20381;-59
2023/07/18 04:18:27;;;;;;;8.98;3.08;;;;;;;12.75;100.00;101898.41;5013500;28;20038;-57
2023/07/18 04:21:00;;;;;;;8.52;3.05;;;;;;;12.88;100.00;101894.13;5009295;28;20045;-57
2023/07/18 04:23:29;;;;;;;6.18;2.95;;;;;;;12.83;100.00;101904.13;5011216;28;20046;-56
2023/07/18 04:25:59;;;;;;;7.90;2.83;;;;;;;12.83;100.00;101898.84;5010688;28;20567;-57
2023/07/18 04:28:29;;;;;;;7.20;2.80;;;;;;;12.74;100.00;101894.94;5014753;28;20052;-57
2023/07/18 04:31:01;;;;;;;7.32;2.90;;;;;;;12.84;100.00;101895.25;5014328;28;20449;-57
2023/07/18 04:33:39;;;;;;;10.30;3.17;;;;;;;12.81;100.00;101901.53;5012226;28;20103;-57
2023/07/18 04:36:09;;;;;;;9.88;3.20;;;;;;;12.82;100.00;101895.34;5010733;28;20516;-57
2023/07/18 04:38:37;;;;;;;7.03;2.85;;;;;;;12.84;100.00;101893.47;5013038;28;20049;-57
2023/07/18 04:41:06;;;;;;;10.10;3.33;;;;;;;12.87;100.00;101888.94;5014115;28;20085;-57
2023/07/18 04:43:35;;;;;;;8.68;3.05;;;;;;;12.82;100.00;101887.41;5014572;28;20575;-57
2023/07/18 04:46:05;;;;;;;8.00;3.40;;;;;;;12.77;100.00;101883.34;5013299;28;20088;-57
2023/07/18 04:48:33;;;;;;;7.78;2.97;;;;;;;12.78;100.00;101887.69;5011915;28;20045;-57
2023/07/18 04:51:02;;;;;;;7.57;3.40;;;;;;;12.77;100.00;101886.81;5010811;28;20565;-61
2023/07/18 04:53:32;;;;;;;8.23;3.58;;;;;;;12.79;100.00;101884.13;5010601;28;20042;-61
2023/07/18 04:56:00;;;;;;;8.18;3.22;;;;;;;12.83;100.00;101889.13;5009981;28;20069;-60
2023/07/18 04:58:29;;;;;;;7.53;3.55;;;;;;;12.85;100.00;101883.75;5009356;28;20054;-61
2023/07/18 05:00:59;;;;;;;9.07;3.97;;;;;;;12.87;100.00;101892.44;5011740;28;20124;-57
2023/07/18 05:03:28;;;;;;;9.68;4.07;;;;;;;12.97;100.00;101890.13;5014076;28;20092;-56
2023/07/18 05:06:02;;;;;;;8.88;4.10;;;;;;;12.96;100.00;101894.53;5012471;28;20042;-60
2023/07/18 05:08:30;;;;;;;8.25;4.85;;;;;;;13.02;100.00;101899.47;5010092;28;20505;-60
2023/07/18 05:11:01;;;;;;;8.90;4.30;;;;;;;13.07;100.00;101896.53;5012047;28;20548;-60
2023/07/18 05:13:29;;;;;;;11.10;4.32;;;;;;;13.15;100.00;101891.66;5010927;28;20053;-60
2023/07/18 05:16:02;;;;;;;10.60;4.65;;;;;;;13.18;100.00;101898.53;5009157;28;20046;-60
2023/07/18 05:18:30;;;;;;;11.52;4.57;;;;;;;13.31;100.00;101891.59;5013855;28;20108;-60
2023/07/18 05:20:58;;;;;;;13.27;4.88;;;;;;;13.44;100.00;101882.94;5013475;28;20053;-57
2023/07/18 05:23:27;;;;;;;10.32;5.07;;;;;;;13.45;100.00;101887.31;5012496;28;20069;-57
2023/07/18 05:25:56;;;;;;;11.85;5.63;;;;;;;13.53;100.00;101890.31;5013300;28;20688;-57
2023/07/18 05:28:24;;;;;;;12.70;6.20;;;;;;;13.60;100.00;101896.94;5013167;28;20045;-57
2023/07/18 05:30:52;;;;;;;14.05;6.93;;;;;;;13.64;100.00;101890.50;5012647;28;20108;-57
2023/07/18 05:33:22;;;;;;;13.18;6.53;;;;;;;13.74;100.00;101887.31;5010324;28;20074;-57
2023/07/18 05:35:53;;;;;;;11.15;6.22;;;;;;;13.77;100.00;101884.47;5011170;28;20501;-57
2023/07/18 05:38:21;;;;;;;13.38;6.60;;;;;;;13.80;100.00;101881.66;5013638;28;20058;-57
2023/07/18 05:40:49;;;;;;;14.48;6.88;;;;;;;13.85;100.00;101885.69;5010295;28;20057;-57
2023/07/18 05:43:18;;;;;;;11.38;6.55;;;;;;;13.93;100.00;101884.38;5009265;28;20053;-57
2023/07/18 05:45:46;;;;;;;12.90;6.82;;;;;;;14.02;100.00;101883.78;5013287;28;20136;-57
2023/07/18 05:48:14;;;;;;;10.40;6.40;;;;;;;14.12;100.00;101878.75;5013523;28;20054;-58
2023/07/18 05:50:44;;;;;;;13.80;6.38;;;;;;;14.20;100.00;101881.75;5010529;28;20469;-57
2023/07/18 05:53:12;;;;;;;10.98;5.90;;;;;;;14.30;100.00;101882.88;5009792;28;20579;-57
2023/07/18 05:55:40;;;;;;;13.90;6.97;;;;;;;14.41;100.00;101883.97;5009482;28;20067;-60
2023/07/18 05:58:09;;;;;;;16.00;6.20;;;;;;;14.51;100.00;101880.63;5009042;28;20060;-57
2023/07/18 06:00:38;;;;;;;10.45;5.90;;;;;;;14.62;100.00;101885.22;5008977;28;20042;-56
2023/07/18 06:03:09;;;;;;;13.85;5.97;;;;;;;14.75;100.00;101877.34;5013044;28;20044;-61
2023/07/18 06:05:37;;;;;;;9.65;6.00;;;;;;;14.82;100.00;101885.72;5012963;28;20053;-60
2023/07/18 06:08:07;;;;;;;13.93;5.88;;;;;;;14.94;100.00;101884.06;5012816;28;20056;-61
2023/07/18 06:10:35;;;;;;;11.07;6.00;;;;;;;15.06;100.00;101890.31;5009233;28;20050;-57
2023/07/18 06:13:03;;;;;;;13.57;6.63;;;;;;;15.26;100.00;101892.47;5009144;28;20046;-56
2023/07/18 06:15:31;;;;;;;9.93;5.10;;;;;;;15.33;100.00;101896.38;5007716;28;20401;-57
2023/07/18 06:18:00;;;;;;;14.68;5.88;;;;;;;15.46;100.00;101887.59;5010288;28;20054;-56
2023/07/18 06:20:28;;;;;;;11.20;5.85;;;;;;;15.54;100.00;101890.53;5008973;28;20054;-56
2023/07/18 06:22:56;;;;;;;12.02;6.53;;;;;;;15.68;100.00;101889.59;5009011;28;20155;-56
2023/07/18 06:25:26;;;;;;;9.98;5.93;;;;;;;15.82;100.00;101888.66;5009268;28;20053;-56
2023/07/18 06:27:54;;;;;;;14.80;5.93;;;;;;;15.91;100.00;101888.00;5010793;28;20046;-57
2023/07/18 06:30:22;;;;;;;16.30;6.60;;;;;;;16.07;100.00;101895.69;5007078;28;20375;-56
2023/07/18 06:32:50;;;;;;;9.77;5.18;;;;;;;16.17;100.00;101898.53;5011372;28;20456;-57
2023/07/18 06:35:19;;;;;;;10.40;4.88;;;;;;;16.29;100.00;101904.75;5012473;28;20084;-57
2023/07/18 06:37:51;;;;;;;9.80;4.65;;;;;;;16.44;100.00;101897.50;5012370;28;20575;-57
2023/07/18 06:40:19;;;;;;;13.15;6.00;;;;;;;16.71;100.00;101906.09;5012037;28;20050;-57
2023/07/18 06:42:49;;;;;;;9.52;4.40;;;;;;;16.79;100.00;101905.50;5009445;28;20074;-57
2023/07/18 06:45:17;;;;;;;9.52;4.45;;;;;;;16.89;100.00;101905.66;5007303;28;20432;-60
2023/07/18 06:47:47;;;;;;;8.73;4.03;;;;;;;16.97;100.00;101900.63;5011949;28;20045;-62
2023/07/18 06:50:16;;;;;;;9.77;4.57;;;;;;;17.13;100.00;101899.47;5012283;28;20073;-62
2023/07/18 06:52:44;;;;;;;8.75;4.05;;;;;;;17.25;100.00;101901.19;5012133;28;20042;-57
2023/07/18 06:55:12;;;;;;;10.27;4.00;;;;;;;17.36;100.00;101903.88;5010840;28;20505;-57
2023/07/18 06:57:40;;;;;;;10.63;4.10;;;;;;;17.53;100.00;101904.38;5008817;28;20057;-61
2023/07/18 07:00:14;;;;;;;10.45;4.38;;;;;;;17.62;100.00;101903.66;5006326;28;20061;-61
2023/07/18 07:02:42;;;;;;;7.43;3.58;;;;;;;17.80;100.00;101897.84;5008263;28;20408;-62
2023/07/18 07:05:10;;;;;;;9.10;3.97;;;;;;;17.94;100.00;101902.94;5009481;28;20045;-62
2023/07/18 07:07:39;;;;;;;11.32;3.58;;;;;;;18.16;100.00;101887.91;5011619;28;20046;-61
2023/07/18 07:10:10;;;;;;;8.40;3.40;;;;;;;18.31;100.00;101897.31;5009142;28;20056;-62
2023/07/18 07:12:38;;;;;;;7.78;3.63;;;;;;;18.45;100.00;101885.53;5007604;28;20046;-61
2023/07/18 07:15:07;;;;;;;8.75;4.07;;;;;;;18.54;100.00;101879.44;5006330;28;20587;-62
2023/07/18 07:17:36;;;;;;;6.88;2.85;;;;;;;18.70;100.00;101883.50;5007819;28;20037;-62
2023/07/18 07:20:06;;;;;;;8.50;3.10;;;;;;;18.89;100.00;101885.50;5007789;28;20038;-62
2023/07/18 07:22:34;;;;;;;8.50;3.55;;;;;;;19.05;100.00;101880.56;5008484;28;20385;-58
2023/07/18 07:25:03;;;;;;;7.22;2.90;;;;;;;19.21;100.00;101876.56;5007797;28;20505;-56
2023/07/18 07:27:31;;;;;;;8.00;2.80;;;;;;;19.38;100.00;101883.97;5007555;28;20042;-58
2023/07/18 07:29:59;;;;;;;8.48;3.15;;;;;;;19.50;100.00;101881.22;5010372;28;20046;-57
2023/07/18 07:32:28;;;;;;;6.47;2.72;;;;;;;19.56;100.00;101881.50;5016716;28;20468;-57
2023/07/18 07:34:57;;;;;;;7.55;2.80;;;;;;;19.81;100.00;101879.41;5027427;28;20044;-57
2023/07/18 07:37:25;;;;;;;8.48;2.80;;;;;;;19.98;100.00;101874.41;5014500;28;20052;-57
2023/07/18 07:39:54;;;;;;;8.70;3.05;;;;;;;20.07;100.00;101874.41;5013900;28;20048;-58
2023/07/18 07:42:23;;;;;;;8.35;2.60;;;;;;;20.33;100.00;101876.56;5014321;28;20061;-58
2023/07/18 07:44:52;;;;;;;7.18;2.80;;;;;;;20.42;100.00;101867.72;5012852;28;20049;-58
2023/07/18 07:47:20;;;;;;;6.70;2.78;;;;;;;20.47;100.00;101866.47;5013262;28;20045;-63
2023/07/18 07:49:48;;;;;;;7.43;2.47;;;;;;;20.73;100.00;101872.94;5013997;28;20049;-63
2023/07/18 07:52:18;;;;;;;6.70;2.80;;;;;;;20.93;100.00;101873.75;5017773;28;20092;-63
2023/07/18 07:54:48;;;;;;;7.25;2.65;;;;;;;21.15;100.00;101876.25;5015643;28;20049;-61
2023/07/18 07:57:16;;;;;;;7.55;2.63;;;;;;;21.31;100.00;101879.16;5014768;28;20443;-62
2023/07/18 07:59:45;;;;;;;9.15;2.90;;;;;;;21.54;100.00;101871.66;5015054;28;20050;-61
2023/07/18 08:02:14;;;;;;;8.27;3.13;;;;;;;21.16;100.00;101872.56;5017979;28;20054;-61
2023/07/18 08:04:43;;;;;;;6.35;2.83;;;;;;;21.54;100.00;101873.47;5014528;28;20046;-62
2023/07/18 08:07:11;;;;;;;7.57;2.90;;;;;;;21.73;100.00;101867.19;5014826;28;20108;-61
2023/07/18 08:09:41;;;;;;;8.10;2.50;;;;;;;21.90;100.00;101866.38;5015259;28;20046;-61
2023/07/18 08:12:11;;;;;;;7.43;2.33;;;;;;;21.74;100.00;101861.69;5017852;28;20056;-60
2023/07/18 08:14:40;;;;;;;6.55;2.80;;;;;;;22.06;100.00;101856.84;5017812;28;20401;-61
2023/07/18 08:17:08;;;;;;;8.10;2.30;;;;;;;22.17;100.00;101859.31;5014923;28;20058;-61
2023/07/18 08:19:36;;;;;;;4.82;1.70;;;;;;;22.31;100.00;101851.75;5013498;28;20501;-61
2023/07/18 08:22:04;;;;;;;3.88;1.73;;;;;;;22.39;100.00;101849.19;5017726;28;20440;-61
2023/07/18 08:24:33;;;;;;;4.40;1.73;;;;;;;22.36;100.00;101847.66;5014551;28;20125;-61
2023/07/18 08:27:02;;;;;;;7.05;1.60;;;;;;;22.62;100.00;101839.66;5013956;28;20041;-60
2023/07/18 08:29:31;;;;;;;6.40;1.67;;;;;;;22.77;100.00;101839.94;5017236;28;20049;-61
2023/07/18 08:32:00;;;;;;;4.13;1.20;;;;;;;22.79;100.00;101842.44;5013398;28;20081;-61
2023/07/18 08:34:29;;;;;;;4.38;1.27;;;;;;;22.78;100.00;101847.00;5014469;28;20045;-57
2023/07/18 08:36:57;;;;;;;5.97;1.20;;;;;;;22.82;100.00;101839.44;5023557;28;20524;-57
2023/07/18 08:39:25;;;;;;;5.63;1.13;;;;;;;23.28;100.00;101844.63;5035115;28;20045;-57
2023/07/18 08:41:54;;;;;;;5.03;1.38;;;;;;;23.34;98.58;101840.47;5030770;28;20140;-58
2023/07/18 08:44:23;;;;;;;4.10;1.00;;;;;;;23.62;96.35;101841.94;5014786;28;20046;-57
2023/07/18 08:46:52;;;;;;;3.97;1.00;;;;;;;23.85;95.52;101838.66;5011570;28;20409;-57
2023/07/18 08:49:28;;;;;;;3.28;1.02;;;;;;;23.89;91.46;101839.22;5004920;28;20608;-57
2023/07/18 08:54:08;;;;;;;6.00;1.17;;;;;;;24.17;87.45;101831.69;5108965;27;21110;-57
2023/07/18 08:56:37;;;;;;;2.65;1.13;;;;;;;24.61;91.93;101833.22;5079890;28;20044;-63
2023/07/18 08:59:05;;;;;;;4.32;1.30;;;;;;;24.76;84.85;101825.31;5083424;28;20075;-61
2023/07/18 09:01:33;;;;;;;3.65;1.50;;;;;;;23.99;85.91;101821.09;5089707;28;20478;-62
2023/07/18 09:04:02;;;;;;;3.83;1.08;;;;;;;24.26;87.35;101813.75;5087015;28;20093;-62
2023/07/18 09:06:30;;;;;;;4.63;1.02;;;;;;;24.56;89.65;101817.59;5088005;28;20036;-63
2023/07/18 09:08:59;;;;;;;3.45;1.05;;;;;;;24.74;78.05;101816.59;5072314;28;20133;-62
2023/07/18 09:11:29;;;;;;;3.13;1.20;;;;;;;24.58;80.86;101809.34;5082495;28;20097;-61
2023/07/18 09:13:58;;;;;;;4.40;1.23;;;;;;;24.61;82.30;101806.31;5082886;28;20067;-64
2023/07/18 09:16:26;;;;;;;3.83;0.90;;;;;;;25.08;77.40;101805.59;5083683;28;20041;-62
2023/07/18 09:18:55;;;;;;;6.72;1.00;;;;;;;25.06;71.38;101796.00;5077933;28;20063;-62
2023/07/18 09:21:24;;;;;;;2.90;1.10;;;;;;;25.02;71.64;101800.91;5081613;28;20071;-62
2023/07/18 09:23:53;;;;;;;4.13;1.27;;;;;;;24.77;67.22;101806.34;5086276;28;20064;-61
2023/07/18 09:26:24;;;;;;;4.15;0.80;;;;;;;24.58;67.86;101803.97;5066846;28;20123;-61
2023/07/18 09:28:55;;;;;;;2.95;0.93;;;;;;;25.06;72.05;101798.69;5092068;28;20048;-61
2023/07/18 09:31:26;;;;;;;4.35;1.25;;;;;;;25.49;69.53;101801.94;5084832;28;20126;-62
2023/07/18 09:33:55;;;;;;;4.93;1.05;;;;;;;25.50;64.95;101805.44;5087291;28;20040;-62
2023/07/18 09:36:25;;;;;;;3.55;1.08;;;;;;;25.78;65.47;101797.72;5087967;28;20040;-62
2023/07/18 09:38:56;;;;;;;3.33;1.05;;;;;;;25.55;64.96;101800.38;5088342;28;20047;-61
2023/07/18 09:41:24;;;;;;;4.88;1.10;;;;;;;25.52;64.87;101796.19;5088576;28;20049;-60
2023/07/18 09:43:55;;;;;;;3.03;1.00;;;;;;;25.69;64.71;101798.78;5079216;28;20862;-62
2023/07/18 09:46:44;;;;;;;3.30;0.98;;;;;;;26.22;64.69;101805.22;5105014;28;20043;-64
2023/07/18 09:49:14;;;;;;;3.25;1.00;;;;;;;26.51;64.94;101786.59;5083151;28;20695;-63
2023/07/18 09:51:47;;;;;;;3.45;0.93;;;;;;;26.56;61.68;101790.44;5082240;28;20047;-62
2023/07/18 09:54:17;;;;;;;5.20;0.98;;;;;;;26.53;60.48;101789.94;5067661;28;20045;-63
2023/07/18 09:56:45;;;;;;;3.90;1.00;;;;;;;26.85;58.79;101790.69;5067070;28;20128;-62
2023/07/18 09:59:17;;;;;;;1.92;0.93;;;;;;;26.61;58.89;101790.72;5067124;28;20037;-62
2023/07/18 10:01:46;;;;;;;3.47;0.80;;;;;;;26.76;59.21;101779.13;5067617;28;20044;-63
2023/07/18 10:04:19;;;;;;;3.00;1.00;;;;;;;27.10;58.26;101783.97;5059352;28;20085;-63
2023/07/18 10:06:51;;;;;;;2.88;0.90;;;;;;;27.02;53.48;101777.84;5050795;28;20044;-63
2023/07/18 10:09:23;;;;;;;3.78;0.80;;;;;;;27.11;57.35;101780.25;5052750;28;20048;-63
2023/07/18 10:12:11;;;;;;;2.72;0.80;;;;;;;27.28;57.25;101769.22;5050822;28;20077;-64
2023/07/18 10:14:52;;;;;;;4.15;1.02;;;;;;;27.80;58.48;101770.91;5049770;28;20064;-64
2023/07/18 10:17:35;;;;;;;2.67;0.80;;;;;;;27.96;52.80;101775.22;5050926;28;20049;-62
2023/07/18 10:20:11;;;;;;;2.80;0.90;;;;;;;27.87;51.15;101770.13;5050059;28;20438;-63
2023/07/18 10:22:48;;;;;;;3.50;0.63;;;;;;;28.06;51.99;101764.13;5050105;28;20144;-63
2023/07/18 10:25:19;;;;;;;3.72;0.90;;;;;;;28.13;50.65;101766.88;5051233;28;20480;-63
2023/07/18 10:27:48;;;;;;;3.90;0.60;;;;;;;28.04;51.06;101760.75;5051168;28;20055;-63
2023/07/18 10:30:20;;;;;;;2.75;0.70;;;;;;;28.11;52.95;101758.13;5048383;28;20056;-63
2023/07/18 10:32:52;;;;;;;2.95;0.63;;;;;;;28.29;49.34;101761.19;5053136;28;20048;-62
2023/07/18 10:35:24;;;;;;;2.78;0.60;;;;;;;28.11;46.89;101753.53;5053016;28;20116;-62
2023/07/18 10:37:56;;;;;;;2.05;0.60;;;;;;;28.14;45.25;101755.00;5051962;28;20044;-63
2023/07/18 10:40:37;;;;;;;3.42;0.80;;;;;;;28.29;49.38;101747.66;5049885;28;20053;-63
2023/07/18 10:43:06;;;;;;;3.13;0.70;;;;;;;28.65;49.65;101745.88;5049443;28;20051;-63
2023/07/18 10:45:40;;;;;;;4.13;0.77;;;;;;;29.04;47.19;101746.25;5048525;28;20191;-63
2023/07/18 10:48:14;;;;;;;2.80;0.70;;;;;;;29.24;45.47;101744.47;5053188;28;20524;-62
2023/07/18 10:50:43;;;;;;;3.45;0.80;;;;;;;29.47;43.68;101735.22;5053129;28;20107;-63
2023/07/18 10:53:16;;;;;;;3.28;0.70;;;;;;;29.58;43.24;101733.78;5052934;28;20053;-62
2023/07/18 10:55:45;;;;;;;3.45;0.60;;;;;;;29.64;44.88;101724.81;5049406;28;20052;-63
2023/07/18 10:58:17;;;;;;;3.88;0.75;;;;;;;29.57;45.51;101722.09;5031332;28;20049;-63
2023/07/18 11:00:48;;;;;;;0.88;0.60;;;;;;;29.50;43.54;101719.41;5048626;28;20048;-64
2023/07/18 11:03:21;;;;;;;3.03;0.70;;;;;;;29.87;43.16;101720.91;5050063;28;20710;-65
2023/07/18 11:05:50;;;;;;;1.00;0.50;;;;;;;30.26;43.25;101714.66;5049178;28;20548;-64
2023/07/18 11:08:25;;;;;;;2.47;0.60;;;;;;;29.81;42.04;101714.41;5052825;28;20052;-58
2023/07/18 11:10:55;;;;;;;3.38;0.80;;;;;;;29.77;38.78;101711.28;5051879;28;20720;-58
2023/07/18 11:13:28;;;;;;;1.95;0.50;;;;;;;29.03;40.06;101698.56;5048684;28;20052;-58
2023/07/18 11:15:59;;;;;;;2.28;0.60;;;;;;;29.60;41.35;101697.31;5063079;28;20112;-58
2023/07/18 11:18:32;;;;;;;2.22;0.60;;;;;;;29.71;42.46;101695.88;5068495;28;20048;-58
2023/07/18 11:21:03;;;;;;;2.20;0.70;;;;;;;29.96;40.46;101685.25;5072908;28;20055;-58
2023/07/18 11:23:33;;;;;;;1.92;0.65;;;;;;;29.84;36.94;101690.44;5072495;28;20044;-58
2023/07/18 11:26:08;;;;;;;2.63;0.65;;;;;;;29.56;36.98;101689.78;5072693;28;20044;-58
2023/07/18 11:28:37;;;;;;;3.00;0.70;;;;;;;29.97;41.43;101683.41;5072108;28;20503;-58
2023/07/18 11:31:20;;;;;;;1.50;0.50;;;;;;;30.04;39.16;101686.94;5072068;28;20044;-58